createdAt,value
2022-09-18T00:01:58.784Z,17.47
2022-09-18T00:04:44.673Z,17.37
2022-09-18T00:07:30.583Z,17.35
2022-09-18T00:10:16.545Z,17.28
2022-09-18T00:13:02.555Z,17.22
2022-09-18T00:15:55.381Z,17.14
2022-09-18T00:18:42.346Z,17.10
2022-09-18T00:21:29.774Z,17.04
2022-09-18T00:24:20.422Z,16.97
2022-09-18T00:27:06.310Z,17.03
2022-09-18T00:29:52.089Z,17.00
2022-09-18T00:32:38.278Z,16.93
2022-09-18T00:35:24.543Z,16.91
2022-09-18T00:38:10.726Z,16.84
2022-09-18T00:41:00.367Z,16.82
2022-09-18T00:43:46.138Z,16.77
2022-09-18T00:46:34.346Z,16.76
2022-09-18T00:49:23.910Z,16.71
2022-09-18T00:52:11.365Z,16.68
2022-09-18T00:55:01.404Z,16.60
2022-09-18T00:57:54.428Z,16.59
2022-09-18T01:00:43.796Z,16.57
2022-09-18T01:03:30.086Z,16.57
2022-09-18T01:06:23.529Z,16.55
2022-09-18T01:09:51.845Z,16.51
2022-09-18T01:12:51.095Z,16.48
2022-09-18T01:16:02.671Z,16.47
2022-09-18T01:19:19.454Z,16.47
2022-09-18T01:22:15.032Z,16.46
2022-09-18T01:25:23.528Z,16.43
2022-09-18T01:28:18.376Z,16.43
2022-09-18T01:31:14.897Z,16.41
2022-09-18T01:34:11.106Z,16.39
2022-09-18T01:37:11.988Z,16.38
2022-09-18T01:40:53.257Z,16.35
2022-09-18T01:43:39.880Z,16.34
2022-09-18T01:46:26.236Z,16.37
2022-09-18T01:49:14.887Z,16.36
2022-09-18T01:52:37.331Z,16.25
2022-09-18T01:55:26.685Z,16.40
2022-09-18T01:58:19.046Z,16.42
2022-09-18T02:01:13.193Z,16.38
2022-09-18T02:04:15.253Z,16.40
2022-09-18T02:07:16.177Z,16.38
2022-09-18T02:10:03.774Z,16.39
2022-09-18T02:12:51.118Z,16.43
2022-09-18T02:15:38.810Z,16.37
2022-09-18T02:18:34.706Z,16.44
2022-09-18T02:21:28.094Z,16.44
2022-09-18T02:24:16.363Z,16.41
2022-09-18T02:27:03.703Z,16.46
2022-09-18T02:29:49.503Z,16.45
2022-09-18T02:32:37.472Z,16.45
2022-09-18T02:35:27.483Z,16.48
2022-09-18T02:38:30.982Z,16.45
2022-09-18T02:41:20.190Z,16.48
2022-09-18T02:44:20.852Z,16.46
2022-09-18T02:47:09.900Z,16.48
2022-09-18T02:50:37.206Z,16.40
2022-09-18T02:53:46.738Z,16.39
2022-09-18T02:56:47.280Z,16.43
2022-09-18T02:59:40.943Z,16.40
2022-09-18T03:02:29.977Z,16.42
2022-09-18T03:05:15.863Z,16.40
2022-09-18T03:08:11.835Z,16.41
2022-09-18T03:10:57.830Z,16.44
2022-09-18T03:13:45.875Z,16.44
2022-09-18T03:16:31.657Z,16.43
2022-09-18T03:19:17.896Z,16.41
2022-09-18T03:22:03.852Z,16.44
2022-09-18T03:24:53.422Z,16.41
2022-09-18T03:27:39.864Z,16.39
2022-09-18T03:30:27.068Z,16.46
2022-09-18T03:33:13.805Z,16.48
2022-09-18T03:36:02.560Z,16.45
2022-09-18T03:38:48.907Z,16.47
2022-09-18T03:41:35.673Z,16.45
2022-09-18T03:44:25.371Z,16.43
2022-09-18T03:47:11.776Z,16.34
2022-09-18T03:49:58.201Z,16.44
2022-09-18T03:52:47.761Z,16.44
2022-09-18T03:55:55.805Z,16.39
2022-09-18T03:59:00.205Z,16.42
2022-09-18T04:02:20.690Z,16.42
2022-09-18T04:05:07.007Z,16.47
2022-09-18T04:08:30.619Z,16.38
2022-09-18T04:11:45.051Z,16.41
2022-09-18T04:14:31.231Z,16.39
2022-09-18T04:17:18.093Z,16.40
2022-09-18T04:20:05.139Z,16.41
2022-09-18T04:22:51.372Z,16.41
2022-09-18T04:25:43.087Z,16.38
2022-09-18T04:28:31.304Z,16.36
2022-09-18T04:31:17.434Z,16.37
2022-09-18T04:34:03.239Z,16.33
2022-09-18T04:36:51.311Z,16.33
2022-09-18T04:39:37.243Z,16.30
2022-09-18T04:42:23.241Z,16.32
2022-09-18T04:45:13.704Z,16.33
2022-09-18T04:47:59.947Z,16.21
2022-09-18T04:50:49.074Z,16.31
2022-09-18T04:53:38.080Z,16.23
2022-09-18T04:56:24.969Z,16.25
2022-09-18T04:59:11.639Z,16.28
2022-09-18T05:02:02.009Z,16.27
2022-09-18T05:04:47.910Z,16.29
2022-09-18T05:07:42.256Z,16.29
2022-09-18T05:10:29.107Z,16.31
2022-09-18T05:13:15.731Z,16.33
2022-09-18T05:16:15.941Z,16.35
2022-09-18T05:19:09.173Z,16.31
2022-09-18T05:21:55.053Z,16.30
2022-09-18T05:24:43.083Z,16.33
2022-09-18T05:27:33.746Z,16.32
2022-09-18T05:30:20.266Z,16.32
2022-09-18T05:33:15.801Z,16.33
2022-09-18T05:36:04.191Z,16.31
2022-09-18T05:38:51.624Z,16.29
2022-09-18T05:41:37.893Z,16.35
2022-09-18T05:44:23.946Z,16.36
2022-09-18T05:47:11.804Z,16.35
2022-09-18T05:50:00.346Z,16.35
2022-09-18T05:52:46.410Z,16.39
2022-09-18T05:55:34.086Z,16.39
2022-09-18T05:58:21.071Z,16.38
2022-09-18T06:01:14.313Z,16.34
2022-09-18T06:04:22.653Z,16.32
2022-09-18T06:07:15.666Z,16.37
2022-09-18T06:10:02.847Z,16.36
2022-09-18T06:12:49.607Z,16.43
2022-09-18T06:15:36.210Z,16.43
2022-09-18T06:18:22.832Z,16.40
2022-09-18T06:21:14.928Z,16.44
2022-09-18T06:24:03.014Z,16.41
2022-09-18T06:27:02.723Z,16.41
2022-09-18T06:29:48.600Z,16.43
2022-09-18T06:32:44.519Z,16.37
2022-09-18T06:35:30.524Z,16.46
2022-09-18T06:38:17.001Z,16.43
2022-09-18T06:41:06.793Z,16.48
2022-09-18T06:44:18.686Z,16.49
2022-09-18T06:47:13.420Z,16.45
2022-09-18T06:50:03.816Z,16.52
2022-09-18T06:52:49.795Z,16.50
2022-09-18T06:55:35.925Z,16.54
2022-09-18T06:58:23.098Z,16.56
2022-09-18T07:01:11.102Z,16.55
2022-09-18T07:04:03.250Z,16.61
2022-09-18T07:06:59.327Z,16.62
2022-09-18T07:09:47.332Z,16.49
2022-09-18T07:12:41.253Z,16.54
2022-09-18T07:15:28.213Z,16.61
2022-09-18T07:18:14.474Z,16.59
2022-09-18T07:21:00.504Z,16.61
2022-09-18T07:23:52.706Z,16.63
2022-09-18T07:26:40.043Z,16.56
2022-09-18T07:29:27.918Z,16.59
2022-09-18T07:32:15.759Z,16.52
2022-09-18T07:35:13.941Z,16.55
2022-09-18T07:38:22.450Z,16.50
2022-09-18T07:41:13.975Z,16.51
2022-09-18T07:44:03.416Z,16.52
2022-09-18T07:46:51.080Z,16.49
2022-09-18T07:49:38.926Z,16.55
2022-09-18T07:52:27.151Z,16.55
2022-09-18T07:55:15.173Z,16.50
2022-09-18T07:58:04.435Z,16.55
2022-09-18T08:01:10.075Z,16.58
2022-09-18T08:04:12.486Z,16.62
2022-09-18T08:07:18.596Z,16.61
2022-09-18T08:10:16.061Z,16.65
2022-09-18T08:13:34.004Z,16.72
2022-09-18T08:16:28.495Z,16.77
2022-09-18T08:19:30.539Z,16.82
2022-09-18T08:22:40.551Z,16.88
2022-09-18T08:25:33.236Z,16.91
2022-09-18T08:28:19.384Z,16.93
2022-09-18T08:31:11.671Z,17.03
2022-09-18T08:33:57.912Z,17.09
2022-09-18T08:36:44.729Z,17.18
2022-09-18T08:39:59.850Z,17.25
2022-09-18T08:43:28.782Z,17.29
2022-09-18T08:46:20.602Z,17.41
2022-09-18T08:49:28.133Z,17.51
2022-09-18T08:52:21.087Z,17.59
2022-09-18T08:55:27.866Z,17.66
2022-09-18T08:58:51.615Z,17.78
2022-09-18T09:01:48.169Z,17.86
2022-09-18T09:04:35.933Z,18.00
2022-09-18T09:07:43.247Z,18.07
2022-09-18T09:10:35.998Z,18.11
2022-09-18T09:14:02.061Z,18.14
2022-09-18T09:16:52.235Z,18.21
2022-09-18T09:19:59.042Z,18.24
2022-09-18T09:23:14.184Z,18.27
2022-09-18T09:26:12.249Z,18.34
2022-09-18T09:29:29.140Z,18.37
2022-09-18T09:32:38.981Z,18.38
2022-09-18T09:35:49.438Z,18.41
2022-09-18T09:38:39.927Z,18.45
2022-09-18T09:41:25.578Z,18.50
2022-09-18T09:44:28.896Z,18.50
2022-09-18T09:47:23.672Z,18.56
2022-09-18T09:50:10.811Z,18.59
2022-09-18T09:52:59.213Z,18.58
2022-09-18T09:56:12.398Z,18.60
2022-09-18T09:59:27.022Z,18.65
2022-09-18T10:02:55.843Z,18.66
2022-09-18T10:06:09.853Z,18.69
2022-09-18T10:09:02.719Z,18.73
2022-09-18T10:12:17.170Z,18.71
2022-09-18T10:15:16.919Z,18.83
2022-09-18T10:18:06.732Z,18.89
2022-09-18T10:20:56.523Z,18.97
2022-09-18T10:23:53.115Z,19.00
2022-09-18T10:26:56.262Z,19.00
2022-09-18T10:29:43.150Z,19.01
2022-09-18T10:32:38.719Z,19.04
2022-09-18T10:35:44.213Z,19.08
2022-09-18T10:38:34.248Z,19.11
2022-09-18T10:41:45.058Z,19.15
2022-09-18T10:44:37.143Z,19.18
2022-09-18T10:47:46.673Z,19.15
2022-09-18T10:50:34.583Z,19.18
2022-09-18T10:53:33.590Z,19.28
2022-09-18T10:56:28.167Z,19.29
2022-09-18T10:59:31.950Z,19.35
2022-09-18T11:02:20.275Z,19.38
2022-09-18T11:05:23.152Z,19.37
2022-09-18T11:08:18.033Z,19.45
2022-09-18T11:11:09.120Z,19.46
2022-09-18T11:14:08.458Z,19.59
2022-09-18T11:17:25.531Z,19.54
2022-09-18T11:20:41.210Z,19.72
2022-09-18T11:23:39.426Z,19.85
2022-09-18T11:26:30.695Z,19.95
2022-09-18T11:29:28.935Z,20.12
2022-09-18T11:32:15.132Z,20.26
2022-09-18T11:35:05.664Z,20.35
2022-09-18T11:38:00.123Z,20.33
2022-09-18T11:40:51.518Z,20.37
2022-09-18T11:43:41.336Z,20.39
2022-09-18T11:46:43.215Z,20.30
2022-09-18T11:49:34.611Z,20.33
2022-09-18T11:52:29.214Z,20.30
2022-09-18T11:55:32.362Z,20.44
2022-09-18T11:58:48.534Z,20.67
2022-09-18T12:01:46.424Z,20.97
2022-09-18T12:04:49.515Z,21.16
2022-09-18T12:08:06.164Z,21.33
2022-09-18T12:10:56.393Z,21.38
2022-09-18T12:13:49.175Z,21.35
2022-09-18T12:17:17.181Z,21.31
2022-09-18T12:20:12.733Z,21.27
2022-09-18T12:23:01.427Z,21.24
2022-09-18T12:26:12.201Z,21.19
2022-09-18T12:29:39.461Z,21.10
2022-09-18T12:33:02.988Z,21.04
2022-09-18T12:36:36.851Z,20.95
2022-09-18T12:39:35.294Z,20.87
2022-09-18T12:42:45.725Z,20.79
2022-09-18T12:45:51.894Z,20.77
2022-09-18T12:49:03.179Z,20.80
2022-09-18T12:52:27.623Z,20.87
2022-09-18T12:55:37.677Z,21.10
2022-09-18T12:58:33.410Z,21.39
2022-09-18T13:01:35.779Z,21.73
2022-09-18T13:04:31.829Z,22.06
2022-09-18T13:07:26.749Z,22.48
2022-09-18T13:10:18.033Z,22.80
2022-09-18T13:13:25.994Z,23.27
2022-09-18T13:16:25.499Z,23.58
2022-09-18T13:19:18.603Z,23.87
2022-09-18T13:22:10.149Z,23.95
2022-09-18T13:24:57.778Z,23.95
2022-09-18T13:27:43.969Z,23.87
2022-09-18T13:30:31.274Z,23.75
2022-09-18T13:33:25.499Z,23.62
2022-09-18T13:36:11.605Z,23.42
2022-09-18T13:39:02.253Z,23.27
2022-09-18T13:41:56.888Z,23.16
2022-09-18T13:44:49.679Z,22.94
2022-09-18T13:48:14.017Z,22.82
2022-09-18T13:51:03.607Z,22.52
2022-09-18T13:54:15.833Z,22.45
2022-09-18T13:57:05.143Z,22.30
2022-09-18T13:59:56.247Z,22.13
2022-09-18T14:02:42.315Z,22.01
2022-09-18T14:05:28.375Z,21.93
2022-09-18T14:08:20.014Z,21.82
2022-09-18T14:11:23.574Z,21.69
2022-09-18T14:14:12.245Z,21.60
2022-09-18T14:17:13.758Z,21.49
2022-09-18T14:20:20.575Z,21.40
2022-09-18T14:23:35.507Z,21.36
2022-09-18T14:26:35.129Z,21.37
2022-09-18T14:29:20.992Z,21.49
2022-09-18T14:32:17.541Z,21.62
2022-09-18T14:35:30.171Z,21.69
2022-09-18T14:38:21.142Z,21.73
2022-09-18T14:41:19.877Z,21.75
2022-09-18T14:44:07.179Z,21.72
2022-09-18T14:46:59.241Z,21.65
2022-09-18T14:49:44.882Z,21.59
2022-09-18T14:52:40.571Z,21.51
2022-09-18T14:55:32.090Z,21.44
2022-09-18T14:58:21.144Z,21.38
2022-09-18T15:01:09.891Z,21.30
2022-09-18T15:03:57.784Z,21.18
2022-09-18T15:06:45.877Z,21.14
2022-09-18T15:09:33.626Z,21.05
2022-09-18T15:12:24.508Z,20.99
2022-09-18T15:15:30.813Z,20.90
2022-09-18T15:18:23.599Z,20.85
2022-09-18T15:21:33.226Z,20.79
2022-09-18T15:24:19.605Z,20.66
2022-09-18T15:27:06.998Z,20.67
2022-09-18T15:30:20.104Z,20.61
2022-09-18T15:33:08.071Z,20.56
2022-09-18T15:35:55.474Z,20.53
2022-09-18T15:38:43.388Z,20.52
2022-09-18T15:41:43.931Z,20.44
2022-09-18T15:44:39.374Z,20.42
2022-09-18T15:47:32.932Z,20.39
2022-09-18T15:50:34.076Z,20.38
2022-09-18T15:53:23.640Z,20.37
2022-09-18T15:56:19.282Z,20.38
2022-09-18T15:59:07.541Z,20.31
2022-09-18T16:01:53.241Z,20.30
2022-09-18T16:04:39.424Z,20.24
2022-09-18T16:07:26.999Z,20.23
2022-09-18T16:10:34.824Z,20.15
2022-09-18T16:13:20.514Z,20.13
2022-09-18T16:16:22.672Z,20.02
2022-09-18T16:19:10.584Z,20.01
2022-09-18T16:21:56.559Z,19.96
2022-09-18T16:24:42.539Z,19.90
2022-09-18T16:27:28.606Z,19.86
2022-09-18T16:30:15.775Z,19.80
2022-09-18T16:33:07.340Z,19.74
2022-09-18T16:36:05.343Z,19.74
2022-09-18T16:38:54.385Z,19.62
2022-09-18T16:41:43.783Z,19.62
2022-09-18T16:44:29.866Z,19.56
2022-09-18T16:47:15.834Z,19.56
2022-09-18T16:50:01.934Z,19.48
2022-09-18T16:52:47.888Z,19.45
2022-09-18T16:55:34.074Z,19.42
2022-09-18T16:58:20.952Z,19.37
2022-09-18T17:01:07.542Z,19.33
2022-09-18T17:03:53.270Z,19.29
2022-09-18T17:06:39.064Z,19.22
2022-09-18T17:09:25.010Z,19.21
2022-09-18T17:12:10.980Z,19.15
2022-09-18T17:14:56.768Z,19.07
2022-09-18T17:17:43.620Z,19.05
2022-09-18T17:20:32.473Z,18.98
2022-09-18T17:23:18.401Z,18.94
2022-09-18T17:26:09.437Z,18.85
2022-09-18T17:28:55.522Z,18.81
2022-09-18T17:31:41.386Z,18.80
2022-09-18T17:34:28.971Z,18.74
2022-09-18T17:37:14.712Z,18.70
2022-09-18T17:40:01.548Z,18.67
2022-09-18T17:42:47.394Z,18.59
2022-09-18T17:45:33.351Z,18.55
2022-09-18T17:48:19.334Z,18.49
2022-09-18T17:51:11.960Z,18.47
2022-09-18T17:53:59.761Z,18.38
2022-09-18T17:56:45.567Z,18.36
2022-09-18T17:59:31.339Z,18.29
2022-09-18T18:02:17.341Z,18.24
2022-09-18T18:05:03.682Z,18.22
2022-09-18T18:07:49.829Z,18.16
2022-09-18T18:10:36.619Z,18.12
2022-09-18T18:13:23.475Z,18.07
2022-09-18T18:16:14.938Z,18.04
2022-09-18T18:19:04.048Z,17.97
2022-09-18T18:21:50.230Z,17.94
2022-09-18T18:24:36.455Z,17.88
2022-09-18T18:27:22.972Z,17.86
2022-09-18T18:30:09.458Z,17.78
2022-09-18T18:32:56.223Z,17.77
2022-09-18T18:35:42.001Z,17.69
2022-09-18T18:38:28.727Z,17.68
2022-09-18T18:41:15.758Z,17.61
2022-09-18T18:44:05.604Z,17.60
2022-09-18T18:46:51.763Z,17.56
2022-09-18T18:49:38.251Z,17.56
2022-09-18T18:52:24.834Z,17.53
2022-09-18T18:55:11.084Z,17.48
2022-09-18T18:57:57.185Z,17.48
2022-09-18T19:00:44.027Z,17.45
2022-09-18T19:03:29.777Z,17.40
2022-09-18T19:06:15.620Z,17.42
2022-09-18T19:09:16.970Z,17.40
2022-09-18T19:12:05.355Z,17.39
2022-09-18T19:14:51.165Z,17.38
2022-09-18T19:17:36.834Z,17.33
2022-09-18T19:20:22.589Z,17.36
2022-09-18T19:23:13.184Z,17.30
2022-09-18T19:26:00.198Z,17.28
2022-09-18T19:28:52.237Z,17.26
2022-09-18T19:31:39.730Z,17.28
2022-09-18T19:34:26.098Z,17.25
2022-09-18T19:37:14.144Z,17.21
2022-09-18T19:40:02.919Z,17.12
2022-09-18T19:42:55.611Z,17.15
2022-09-18T19:45:45.624Z,17.12
2022-09-18T19:48:34.438Z,17.10
2022-09-18T19:51:21.728Z,17.03
2022-09-18T19:54:07.700Z,17.03
2022-09-18T19:56:53.806Z,17.00
2022-09-18T19:59:39.952Z,16.94
2022-09-18T20:02:26.749Z,16.90
2022-09-18T20:05:12.892Z,16.83
2022-09-18T20:08:01.491Z,16.81
2022-09-18T20:10:47.591Z,16.78
2022-09-18T20:13:33.414Z,16.71
2022-09-18T20:16:19.935Z,16.70
2022-09-18T20:19:06.646Z,16.66
2022-09-18T20:21:53.294Z,16.66
2022-09-18T20:24:41.423Z,16.58
2022-09-18T20:27:27.160Z,16.56
2022-09-18T20:30:13.751Z,16.53
2022-09-18T20:33:02.143Z,16.44
2022-09-18T20:35:54.769Z,16.38
2022-09-18T20:38:42.285Z,16.39
2022-09-18T20:41:29.711Z,16.31
2022-09-18T20:44:15.672Z,16.30
2022-09-18T20:47:05.274Z,16.26
2022-09-18T20:49:53.047Z,16.26
2022-09-18T20:52:43.182Z,16.17
2022-09-18T20:55:29.081Z,16.19
2022-09-18T20:58:16.459Z,16.19
2022-09-18T21:01:14.136Z,16.18
2022-09-18T21:04:01.600Z,16.14
2022-09-18T21:06:58.115Z,16.19
2022-09-18T21:09:44.282Z,16.17
2022-09-18T21:12:38.275Z,16.16
2022-09-18T21:15:25.066Z,16.16
2022-09-18T21:18:12.316Z,16.17
2022-09-18T21:21:03.544Z,16.10
2022-09-18T21:24:02.351Z,16.12
2022-09-18T21:26:49.887Z,16.14
2022-09-18T21:29:35.841Z,16.05
2022-09-18T21:32:22.082Z,16.07
2022-09-18T21:35:08.352Z,16.07
2022-09-18T21:37:55.223Z,15.99
2022-09-18T21:40:40.877Z,15.97
2022-09-18T21:43:26.572Z,15.99
2022-09-18T21:46:14.007Z,15.96
2022-09-18T21:48:59.742Z,15.95
2022-09-18T21:51:49.094Z,15.92
2022-09-18T21:54:35.572Z,15.91
2022-09-18T21:57:21.809Z,15.89
2022-09-18T22:00:09.546Z,15.88
2022-09-18T22:02:59.421Z,15.86
2022-09-18T22:05:46.842Z,15.86
2022-09-18T22:08:32.801Z,15.83
2022-09-18T22:11:19.839Z,15.81
2022-09-18T22:14:09.049Z,15.77
2022-09-18T22:16:56.540Z,15.71
2022-09-18T22:19:42.608Z,15.68
2022-09-18T22:22:28.727Z,15.66
2022-09-18T22:25:16.077Z,15.65
2022-09-18T22:28:02.405Z,15.63
2022-09-18T22:30:48.956Z,15.61
2022-09-18T22:33:34.705Z,15.60
2022-09-18T22:36:20.904Z,15.53
2022-09-18T22:39:06.908Z,15.55
2022-09-18T22:41:53.401Z,15.53
2022-09-18T22:44:39.618Z,15.50
2022-09-18T22:47:25.999Z,15.39
2022-09-18T22:50:12.884Z,15.42
2022-09-18T22:52:59.057Z,15.35
2022-09-18T22:55:45.375Z,15.24
2022-09-18T22:58:31.591Z,15.26
2022-09-18T23:01:21.864Z,15.21
2022-09-18T23:04:08.248Z,15.24
2022-09-18T23:06:54.055Z,15.18
2022-09-18T23:09:43.170Z,15.15
2022-09-18T23:12:29.398Z,15.18
2022-09-18T23:15:15.612Z,15.12
2022-09-18T23:18:04.617Z,15.10
2022-09-18T23:20:50.749Z,15.08
2022-09-18T23:23:39.011Z,15.09
2022-09-18T23:26:27.789Z,15.05
2022-09-18T23:29:20.956Z,14.99
2022-09-18T23:32:07.262Z,14.91
2022-09-18T23:34:54.467Z,14.95
2022-09-18T23:37:40.205Z,14.93
2022-09-18T23:40:26.064Z,14.87
2022-09-18T23:43:12.183Z,14.88
2022-09-18T23:45:57.958Z,14.88
2022-09-18T23:48:44.313Z,14.86
2022-09-18T23:51:32.426Z,14.84
2022-09-18T23:54:21.646Z,14.77
2022-09-18T23:57:07.313Z,14.76
2022-09-18T23:59:53.362Z,14.74
